Terminal Aerodrome Forecast
Issued by NWS Milwaukee/Sullivan, WI

Home | Current Version | Previous Version | Text Only | Print | Product List | Glossary On
Versions: 1 2 3 4 5 6 7 8 9 10 11 12 13 14 15 16 17 18 19 20 21 22 23 24 25 26 27 28 29 30 31 32 33 34 35 36 37 38 39 40 41 42 43 44 45 46 47 48 49 50
000
FTUS43 KMKX 300148 AAA
TAFMKE
TAF AMD
KMKE 300148Z 3002/3106 17011KT P6SM SCT120 BKN250
     FM300400 18010KT P6SM VCTS SCT035CB BKN080
      TEMPO 3004/3007 4SM -TSRA BKN035CB
     FM300700 19009KT P6SM VCTS SCT020 BKN040CB
      TEMPO 3007/3010 3SM TSRA BKN020CB
     FM301000 20009KT 5SM -TSRA SCT008 BKN025CB
     FM301200 20009KT 5SM -TSRA BR OVC020CB
     FM301500 22010KT 5SM BR VCTS SCT008 OVC018CB
     FM301700 22010KT P6SM VCSH BKN025
     FM302100 24009KT P6SM VCTS BKN050CB=

USA.gov is the U.S. government's official web portal to all federal, state and local government web resources and services.